Time;durP1;ratioP1;P1;durP2;ratioP2;P2;SDS_P1;SDS_P2;PMS_P1;PMS_P2;Temp;Humidity;BMP_temperature;BMP_pressure;BME280_temperature;BME280_humidity;BME280_pressure;Samples;Min_cycle;Max_cycle;Signal;HPM_P1;HPM_P2
2023/05/15 00:01:42;;;;;;;5.27;4.87;;;;;;;16.30;57.73;97486.69;8479663;27;20298;-68
2023/05/15 00:05:45;;;;;;;5.27;4.87;;;;;;;16.28;57.77;97482.50;8479404;28;20236;-68
2023/05/15 00:09:49;;;;;;;5.83;5.43;;;;;;;16.23;57.96;97486.28;8479403;28;20228;-68
2023/05/15 00:13:52;;;;;;;5.27;4.97;;;;;;;16.15;58.22;97467.75;8479283;27;20226;-68
2023/05/15 00:17:55;;;;;;;6.00;5.50;;;;;;;16.05;58.78;97479.84;8478822;27;20217;-68
2023/05/15 00:21:57;;;;;;;5.90;5.40;;;;;;;16.06;58.42;97476.28;8480956;28;20231;-68
2023/05/15 00:26:02;;;;;;;6.60;6.10;;;;;;;16.09;58.18;97476.06;8485416;27;20224;-68
2023/05/15 00:30:06;;;;;;;6.83;6.23;;;;;;;16.01;58.93;97479.25;8485288;28;20223;-68
2023/05/15 00:34:08;;;;;;;7.23;6.63;;;;;;;16.01;58.27;97487.06;8484868;28;20226;-68
2023/05/15 00:38:11;;;;;;;7.07;6.40;;;;;;;15.91;58.56;97482.63;8485129;27;20286;-68
2023/05/15 00:42:16;;;;;;;6.87;6.17;;;;;;;15.97;58.25;97475.19;8484613;27;20252;-68
2023/05/15 00:46:19;;;;;;;6.80;6.23;;;;;;;15.92;58.69;97474.69;8475919;28;20232;-68
2023/05/15 00:50:24;;;;;;;7.00;6.40;;;;;;;15.86;58.61;97469.06;8484752;28;20294;-68
2023/05/15 00:54:26;;;;;;;6.13;5.63;;;;;;;15.77;58.72;97463.59;8484648;27;20539;-68
2023/05/15 00:58:31;;;;;;;6.63;6.13;;;;;;;15.69;58.71;97463.31;8484366;28;20234;-68
2023/05/15 01:02:33;;;;;;;5.87;5.37;;;;;;;15.66;58.88;97473.97;8484301;28;20255;-68
2023/05/15 01:06:36;;;;;;;5.57;5.20;;;;;;;15.56;59.29;97465.16;8484034;27;20237;-69
2023/05/15 01:10:40;;;;;;;6.30;5.70;;;;;;;15.53;59.12;97454.91;8484261;28;20224;-68
2023/05/15 01:14:44;;;;;;;6.37;5.90;;;;;;;15.52;59.61;97468.94;8484104;27;20416;-68
2023/05/15 01:18:47;;;;;;;6.60;5.87;;;;;;;15.48;59.34;97460.47;8483829;28;20223;-68
2023/05/15 01:22:55;;;;;;;5.93;5.53;;;;;;;15.53;58.97;97453.13;8483753;27;20325;-68
2023/05/15 01:27:12;;;;;;;6.00;5.50;;;;;;;15.53;58.93;97460.13;8483504;28;20237;-68
2023/05/15 01:31:16;;;;;;;5.70;5.27;;;;;;;15.42;58.93;97451.31;8483514;27;20223;-68
2023/05/15 01:35:22;;;;;;;6.13;5.63;;;;;;;15.40;59.30;97466.25;8447435;28;20240;-68
2023/05/15 01:39:28;;;;;;;5.97;5.47;;;;;;;15.32;59.55;97458.13;8449222;28;20273;-68
2023/05/15 01:43:33;;;;;;;6.30;5.80;;;;;;;15.31;59.53;97461.69;8448925;28;20249;-68
2023/05/15 01:47:39;;;;;;;5.83;5.33;;;;;;;15.27;59.55;97459.41;8449198;27;20223;-68
2023/05/15 01:51:42;;;;;;;7.90;5.37;;;;;;;15.15;59.55;97451.50;8447923;27;20590;-68
2023/05/15 01:55:46;;;;;;;6.00;5.50;;;;;;;15.16;59.13;97445.34;8448978;27;20238;-68
2023/05/15 01:59:51;;;;;;;6.10;5.50;;;;;;;15.04;58.96;97447.06;8448855;28;20224;-68
2023/05/15 02:03:55;;;;;;;6.53;6.03;;;;;;;14.75;59.25;97422.19;8448332;28;20239;-68
2023/05/15 02:07:58;;;;;;;7.07;6.37;;;;;;;14.95;59.12;97446.88;8448466;27;20306;-68
2023/05/15 02:12:01;;;;;;;6.40;5.90;;;;;;;14.53;59.01;97402.81;8448256;28;20228;-68
2023/05/15 02:16:06;;;;;;;6.60;6.00;;;;;;;14.77;59.17;97444.59;8448238;27;20226;-68
2023/05/15 02:20:09;;;;;;;6.43;5.93;;;;;;;14.70;59.36;97425.13;8448016;27;20222;-68
2023/05/15 02:24:12;;;;;;;6.73;5.87;;;;;;;14.95;59.19;97437.28;8447743;27;20236;-68
2023/05/15 02:28:19;;;;;;;6.17;5.30;;;;;;;14.96;58.87;97433.72;8447790;28;20438;-68
2023/05/15 02:32:35;;;;;;;7.00;6.40;;;;;;;14.87;59.32;97434.38;8473204;27;20264;-68
2023/05/15 02:36:40;;;;;;;6.80;6.30;;;;;;;14.83;59.73;97425.09;8481357;27;20249;-68
2023/05/15 02:40:44;;;;;;;6.87;6.27;;;;;;;14.94;59.60;97422.56;8481205;27;20277;-68
2023/05/15 02:44:48;;;;;;;7.00;6.47;;;;;;;14.77;59.65;97418.53;8480439;28;20245;-68
2023/05/15 02:48:53;;;;;;;7.33;6.73;;;;;;;14.85;59.82;97426.66;8481037;27;20512;-68
2023/05/15 02:53:04;;;;;;;6.43;5.80;;;;;;;14.88;59.48;97424.78;8480781;27;20226;-68
2023/05/15 02:57:07;;;;;;;6.77;6.17;;;;;;;14.86;59.65;97427.50;8480574;28;20234;-68
2023/05/15 03:01:10;;;;;;;7.13;6.40;;;;;;;14.86;59.62;97422.28;8480449;28;20226;-68
2023/05/15 03:05:14;;;;;;;7.40;6.50;;;;;;;14.80;59.39;97415.72;8480230;28;20539;-68
2023/05/15 03:09:17;;;;;;;6.50;5.97;;;;;;;14.76;59.34;97411.66;8480430;28;20238;-68
2023/05/15 03:13:20;;;;;;;6.03;5.53;;;;;;;14.80;59.31;97414.91;8471560;28;20406;-69
2023/05/15 03:17:22;;;;;;;6.30;5.70;;;;;;;14.73;59.26;97418.88;8480196;28;20279;-70
2023/05/15 03:21:27;;;;;;;6.53;6.03;;;;;;;14.75;59.14;97428.25;8480203;27;20222;-69
2023/05/15 03:25:30;;;;;;;6.87;6.27;;;;;;;14.69;59.37;97418.25;8479888;28;20238;-69
2023/05/15 03:29:33;;;;;;;6.77;6.00;;;;;;;14.60;59.74;97427.56;8480027;27;20254;-67
2023/05/15 03:33:35;;;;;;;6.90;6.30;;;;;;;14.63;59.44;97427.31;8479931;28;20235;-67
2023/05/15 03:37:43;;;;;;;7.10;6.40;;;;;;;14.56;59.45;97413.00;8479277;28;20238;-69
2023/05/15 03:41:46;;;;;;;6.77;6.13;;;;;;;14.58;59.74;97413.81;8479718;28;20229;-67
2023/05/15 03:45:49;;;;;;;6.60;5.90;;;;;;;14.44;59.30;97385.22;8479652;27;20230;-67
2023/05/15 03:49:52;;;;;;;6.93;6.43;;;;;;;14.44;59.59;97400.84;8479714;28;20222;-67
2023/05/15 03:53:56;;;;;;;7.20;6.60;;;;;;;14.42;59.67;97410.53;8479533;28;20229;-67
2023/05/15 03:57:59;;;;;;;7.50;6.80;;;;;;;14.47;59.37;97413.69;8483331;28;20245;-67
2023/05/15 04:02:02;;;;;;;7.10;6.50;;;;;;;14.24;59.08;97391.78;8486299;27;20234;-67
2023/05/15 04:06:07;;;;;;;7.13;6.43;;;;;;;14.37;58.80;97408.25;8486059;28;20225;-67
2023/05/15 04:10:11;;;;;;;7.07;6.37;;;;;;;14.37;58.85;97408.25;8486161;27;20461;-67
2023/05/15 04:14:14;;;;;;;7.00;6.30;;;;;;;14.37;58.81;97412.63;8485892;27;20232;-68
2023/05/15 04:18:17;;;;;;;6.37;5.87;;;;;;;14.38;58.66;97403.88;8486000;27;20234;-68
2023/05/15 04:22:20;;;;;;;7.13;6.53;;;;;;;14.31;59.03;97408.66;8477012;27;20222;-69
2023/05/15 04:26:24;;;;;;;7.37;6.63;;;;;;;14.23;58.76;97410.97;8485655;28;20442;-69
2023/05/15 04:30:27;;;;;;;7.30;6.53;;;;;;;14.23;59.04;97417.00;8485774;28;20245;-69
2023/05/15 04:34:32;;;;;;;6.73;6.23;;;;;;;14.32;59.07;97417.31;8485340;28;20244;-69
2023/05/15 04:38:35;;;;;;;7.30;6.70;;;;;;;14.22;59.44;97404.94;8484993;27;20233;-69
2023/05/15 04:42:41;;;;;;;7.23;6.63;;;;;;;14.32;59.47;97410.34;8484833;28;20242;-69
2023/05/15 04:46:43;;;;;;;6.70;6.20;;;;;;;14.44;59.73;97409.50;8484838;27;20235;-68
2023/05/15 04:50:50;;;;;;;7.43;6.80;;;;;;;14.58;59.57;97408.59;8484847;27;20232;-69
2023/05/15 04:54:54;;;;;;;7.10;6.40;;;;;;;14.73;59.74;97405.84;8484709;28;20223;-69
2023/05/15 04:59:02;;;;;;;7.73;7.13;;;;;;;14.85;59.66;97398.00;8484689;27;20229;-69
2023/05/15 05:03:05;;;;;;;7.70;7.10;;;;;;;14.94;59.95;97395.66;8484274;27;20230;-68
2023/05/15 05:07:08;;;;;;;7.70;7.00;;;;;;;15.16;60.44;97415.84;8483744;28;20403;-68
2023/05/15 05:11:11;;;;;;;7.13;6.43;;;;;;;15.20;60.40;97396.41;8484388;28;20245;-68
2023/05/15 05:15:17;;;;;;;7.20;6.53;;;;;;;15.30;59.97;97394.78;8483993;27;20506;-67
2023/05/15 05:19:19;;;;;;;7.00;6.43;;;;;;;15.53;59.89;97413.16;8475558;27;20412;-69
2023/05/15 05:23:23;;;;;;;7.07;6.57;;;;;;;15.66;60.02;97410.50;8483539;27;20232;-72
2023/05/15 05:27:26;;;;;;;7.27;6.67;;;;;;;15.73;59.06;97417.78;8483457;27;20231;-69
2023/05/15 05:31:30;;;;;;;7.20;6.57;;;;;;;15.86;59.17;97416.84;8483547;28;20427;-69
2023/05/15 05:35:33;;;;;;;6.70;6.20;;;;;;;15.94;59.06;97411.91;8483508;27;20448;-69
2023/05/15 05:39:36;;;;;;;7.20;6.60;;;;;;;16.09;59.08;97425.59;8483004;27;20349;-69
2023/05/15 05:43:39;;;;;;;7.00;6.50;;;;;;;16.17;59.01;97426.69;8482740;28;20231;-69
2023/05/15 05:47:43;;;;;;;6.60;6.10;;;;;;;16.41;58.15;97412.69;8482886;28;20231;-68
2023/05/15 05:51:46;;;;;;;6.33;5.93;;;;;;;16.31;58.09;97415.16;8482232;27;20237;-69
2023/05/15 05:55:49;;;;;;;6.70;6.07;;;;;;;16.14;58.25;97411.22;8482707;28;20230;-68
2023/05/15 05:59:52;;;;;;;6.37;5.80;;;;;;;16.60;57.72;97412.09;8482737;27;20417;-68
2023/05/15 06:03:56;;;;;;;7.13;6.50;;;;;;;16.70;57.39;97412.22;8482470;27;20226;-69
2023/05/15 06:08:01;;;;;;;6.83;6.33;;;;;;;16.68;56.75;97407.13;8481702;28;20227;-68
2023/05/15 06:12:04;;;;;;;6.93;6.33;;;;;;;16.92;56.39;97396.53;8482362;27;20230;-69
2023/05/15 06:16:07;;;;;;;7.20;6.60;;;;;;;17.13;56.31;97406.25;8482202;27;20238;-69
2023/05/15 06:20:12;;;;;;;6.87;6.23;;;;;;;17.12;56.76;97401.97;8481390;28;20516;-69
2023/05/15 06:24:14;;;;;;;7.00;6.40;;;;;;;17.32;56.96;97402.97;8481562;27;20226;-68
2023/05/15 06:28:17;;;;;;;6.40;5.97;;;;;;;17.53;56.60;97403.00;8481686;27;20233;-68
2023/05/15 06:32:20;;;;;;;7.13;6.53;;;;;;;17.68;57.30;97395.69;8473310;28;20223;-70
2023/05/15 06:36:25;;;;;;;6.60;6.10;;;;;;;17.74;55.61;97403.03;8481267;28;20225;-69
2023/05/15 06:40:28;;;;;;;6.80;6.20;;;;;;;17.85;56.61;97408.25;8481146;27;20242;-69
2023/05/15 06:44:31;;;;;;;6.13;5.63;;;;;;;18.04;55.94;97404.94;8481330;27;20485;-68
2023/05/15 06:48:33;;;;;;;5.80;5.40;;;;;;;18.22;54.64;97401.72;8481091;28;20243;-69
2023/05/15 06:52:39;;;;;;;6.70;6.20;;;;;;;18.24;54.08;97394.56;8480633;27;20250;-69
2023/05/15 06:56:42;;;;;;;6.10;5.50;;;;;;;18.55;54.40;97403.28;8480378;27;20526;-69
2023/05/15 07:00:45;;;;;;;5.13;4.80;;;;;;;18.77;52.68;97402.22;8480840;28;20226;-69
2023/05/15 07:04:47;;;;;;;5.70;5.20;;;;;;;18.76;52.69;97393.53;8480402;28;20227;-69
2023/05/15 07:08:52;;;;;;;4.97;4.57;;;;;;;18.79;53.20;97391.63;8480812;28;20491;-69
2023/05/15 07:12:57;;;;;;;5.47;4.83;;;;;;;18.90;53.60;97391.53;8480558;28;20230;-68
2023/05/15 07:16:59;;;;;;;5.50;5.00;;;;;;;19.06;51.28;97396.28;8480341;28;20228;-69
2023/05/15 07:21:02;;;;;;;4.93;4.43;;;;;;;19.30;51.22;97396.72;8480502;27;20223;-68
2023/05/15 07:25:07;;;;;;;5.70;5.20;;;;;;;19.53;51.77;97388.56;8479989;28;20223;-69
2023/05/15 07:29:10;;;;;;;4.83;4.53;;;;;;;19.52;51.50;97393.00;8480215;28;20223;-69
2023/05/15 07:33:14;;;;;;;4.57;4.27;;;;;;;19.79;49.64;97398.56;8480191;27;20290;-69
2023/05/15 07:37:17;;;;;;;4.53;4.03;;;;;;;19.90;49.14;97395.78;8480256;28;20439;-68
2023/05/15 07:41:21;;;;;;;4.23;3.90;;;;;;;19.94;48.58;97399.78;8471623;28;20236;-70
2023/05/15 07:45:24;;;;;;;3.87;3.60;;;;;;;19.98;47.79;97397.72;8479987;27;20235;-69
2023/05/15 07:49:27;;;;;;;4.00;3.70;;;;;;;20.32;48.44;97392.78;8480106;28;20227;-69
2023/05/15 07:53:32;;;;;;;3.70;3.50;;;;;;;19.74;46.78;97388.47;8479736;27;20243;-68
2023/05/15 07:57:36;;;;;;;5.13;3.47;;;;;;;20.16;47.06;97396.00;8479970;28;20230;-69
2023/05/15 08:01:38;;;;;;;4.13;3.80;;;;;;;20.04;46.39;97397.97;8479683;28;20704;-69
2023/05/15 08:05:41;;;;;;;3.80;3.50;;;;;;;20.33;45.93;97383.91;8479463;28;20232;-69
2023/05/15 08:09:44;;;;;;;3.40;3.17;;;;;;;20.45;47.18;97388.03;8479534;28;20541;-68
2023/05/15 08:13:48;;;;;;;4.30;3.90;;;;;;;20.38;45.96;97391.38;8479569;27;20417;-69
2023/05/15 08:17:53;;;;;;;4.77;4.47;;;;;;;20.26;46.58;97391.56;8479646;28;20524;-68
2023/05/15 08:21:58;;;;;;;4.67;4.33;;;;;;;20.59;46.65;97388.53;8479467;28;20230;-69
2023/05/15 08:26:00;;;;;;;6.23;5.00;;;;;;;20.95;45.63;97391.31;8479112;28;20227;-69
2023/05/15 08:30:06;;;;;;;4.50;4.20;;;;;;;21.31;45.91;97378.19;8479282;27;20234;-69
2023/05/15 08:34:09;;;;;;;4.90;4.50;;;;;;;21.96;45.21;97383.22;8479017;27;20553;-68
2023/05/15 08:38:14;;;;;;;5.10;4.60;;;;;;;22.34;43.09;97379.34;8478911;28;20231;-69
2023/05/15 08:42:21;;;;;;;4.30;2.63;;;;;;;22.34;44.76;97371.44;8479501;28;20249;-68
2023/05/15 08:46:26;;;;;;;5.07;4.60;;;;;;;22.48;43.99;97362.09;8477264;27;20231;-69
2023/05/15 08:50:29;;;;;;;4.70;4.37;;;;;;;22.40;43.99;97359.44;8484803;27;20234;-69
2023/05/15 08:54:32;;;;;;;4.50;4.20;;;;;;;22.67;42.29;97363.66;8484628;27;20242;-68
2023/05/15 08:58:35;;;;;;;4.40;4.10;;;;;;;22.98;41.81;97357.81;8484627;28;20503;-68
2023/05/15 09:02:39;;;;;;;3.83;3.63;;;;;;;23.57;41.77;97357.78;8484493;27;20234;-69
2023/05/15 09:06:43;;;;;;;4.20;3.90;;;;;;;23.13;41.26;97353.63;8484304;27;20227;-69
2023/05/15 09:10:47;;;;;;;4.47;4.17;;;;;;;23.16;40.91;97345.38;8483907;28;20226;-69
2023/05/15 09:14:50;;;;;;;4.50;4.20;;;;;;;22.62;41.02;97340.41;8484300;27;20218;-69
2023/05/15 09:18:54;;;;;;;4.37;4.00;;;;;;;21.85;42.68;97345.56;8484218;28;20234;-69
2023/05/15 09:22:58;;;;;;;3.70;3.40;;;;;;;21.14;43.13;97342.97;8483912;28;20399;-69
2023/05/15 09:27:02;;;;;;;3.80;3.60;;;;;;;20.83;43.29;97328.34;8483597;27;20222;-69
2023/05/15 09:31:06;;;;;;;3.70;3.50;;;;;;;20.69;43.75;97355.16;8483724;27;20436;-69
2023/05/15 09:35:34;;;;;;;3.70;3.50;;;;;;;20.53;43.89;97354.94;8483540;27;20219;-68
2023/05/15 09:39:41;;;;;;;3.43;3.23;;;;;;;20.59;43.97;97360.44;8477553;28;20393;-68
2023/05/15 09:43:44;;;;;;;3.73;3.30;;;;;;;20.58;44.29;97353.53;8483361;27;20414;-68
2023/05/15 09:47:46;;;;;;;4.77;3.60;;;;;;;19.98;46.71;97361.75;8483579;27;20332;-68
2023/05/15 09:51:51;;;;;;;4.17;3.60;;;;;;;20.19;46.74;97353.66;8484187;27;20444;-69
2023/05/15 09:55:54;;;;;;;4.63;4.27;;;;;;;19.30;48.71;97357.34;8483274;28;20233;-68
2023/05/15 10:00:04;;;;;;;4.10;3.80;;;;;;;19.52;47.44;97350.16;8482631;27;20227;-70
2023/05/15 10:04:06;;;;;;;4.35;3.95;;;;;;;20.31;45.95;97349.06;8480943;28;20401;-69
2023/05/15 10:08:11;;;;;;;3.50;3.30;;;;;;;20.03;46.91;97342.91;8482395;28;20223;-69
2023/05/15 10:12:14;;;;;;;3.87;3.30;;;;;;;20.13;45.58;97348.16;8482367;28;20537;-70
2023/05/15 10:16:21;;;;;;;3.77;3.47;;;;;;;20.19;44.76;97342.34;8482342;27;20235;-69
2023/05/15 10:20:25;;;;;;;3.70;3.40;;;;;;;20.11;46.32;97341.25;8481743;27;20279;-69
2023/05/15 10:24:30;;;;;;;3.87;3.47;;;;;;;20.05;45.39;97341.00;8481837;28;20288;-69
2023/05/15 10:28:33;;;;;;;4.10;3.67;;;;;;;20.21;46.23;97340.38;8481739;28;20241;-69
2023/05/15 10:32:40;;;;;;;3.93;3.63;;;;;;;20.51;43.47;97334.03;8481847;27;20231;-69
2023/05/15 10:36:43;;;;;;;4.17;3.87;;;;;;;20.42;43.85;97321.75;8481625;28;20322;-69
2023/05/15 10:40:48;;;;;;;4.23;3.83;;;;;;;19.81;45.75;97320.44;8481465;28;20226;-72
2023/05/15 10:44:52;;;;;;;3.70;3.37;;;;;;;20.09;46.47;97308.19;8481256;27;20300;-69
2023/05/15 10:48:55;;;;;;;3.70;3.40;;;;;;;20.76;44.76;97303.59;8481152;27;20231;-69
2023/05/15 10:52:58;;;;;;;3.87;3.57;;;;;;;22.38;42.97;97303.38;8481209;27;20223;-69
2023/05/15 10:57:02;;;;;;;4.23;3.87;;;;;;;21.56;41.02;97305.50;8480988;28;20230;-69
2023/05/15 11:01:24;;;;;;;3.90;3.30;;;;;;;22.24;41.15;97300.31;8480659;28;20227;-70
2023/05/15 11:05:29;;;;;;;3.33;3.10;;;;;;;22.22;42.01;97291.75;8471639;27;20417;-70
2023/05/15 11:09:39;;;;;;;3.75;3.47;;;;;;;21.43;40.55;97290.06;8480210;28;20421;-69
2023/05/15 11:14:17;;;;;;;3.53;3.27;;;;;;;21.77;40.81;97292.81;8480186;28;20219;-69
2023/05/15 11:18:20;;;;;;;3.50;3.10;;;;;;;21.99;40.08;97286.19;8471623;27;20234;-70
2023/05/15 11:22:27;;;;;;;3.13;2.90;;;;;;;23.20;39.39;97270.09;8480016;27;20515;-69
2023/05/15 11:26:33;;;;;;;4.03;3.20;;;;;;;22.98;38.45;97257.50;8479877;28;20223;-70
2023/05/15 11:30:38;;;;;;;3.67;3.40;;;;;;;23.11;39.61;97267.63;8479436;28;20547;-69
2023/05/15 11:34:41;;;;;;;3.30;3.00;;;;;;;23.91;37.70;97270.41;8479452;27;20233;-69
2023/05/15 11:38:44;;;;;;;3.10;2.80;;;;;;;24.20;33.22;97253.94;8478294;27;20503;-69
2023/05/15 11:43:07;;;;;;;3.17;2.97;;;;;;;22.34;34.49;97255.38;8479627;28;20534;-69
2023/05/15 11:47:11;;;;;;;3.10;2.80;;;;;;;22.17;34.54;97245.75;8479652;28;20313;-69
2023/05/15 11:51:18;;;;;;;3.93;3.63;;;;;;;20.42;39.85;97264.72;8479992;28;20226;-69
2023/05/15 11:55:22;;;;;;;4.03;3.70;;;;;;;20.25;40.62;97250.56;8471454;28;20427;-70
2023/05/15 11:59:27;;;;;;;3.43;3.20;;;;;;;20.55;41.03;97279.34;8480266;28;20508;-68
2023/05/15 12:03:34;;;;;;;3.30;3.00;;;;;;;20.54;40.37;97280.31;8479697;27;20226;-70
2023/05/15 12:07:38;;;;;;;2.90;2.70;;;;;;;20.43;41.02;97262.94;8479431;28;20247;-70
2023/05/15 12:11:41;;;;;;;2.57;2.37;;;;;;;20.35;38.67;97270.72;8479633;28;20422;-69
2023/05/15 12:15:46;;;;;;;2.53;2.40;;;;;;;20.21;38.73;97272.84;8479252;28;20237;-69
2023/05/15 12:19:50;;;;;;;3.67;2.70;;;;;;;20.11;39.42;97282.59;8484657;28;20234;-68
2023/05/15 12:23:54;;;;;;;3.33;2.60;;;;;;;20.57;36.95;97282.66;8486272;27;20222;-69
2023/05/15 12:28:10;;;;;;;2.70;2.47;;;;;;;21.40;35.74;97271.91;8485830;27;20532;-68
2023/05/15 12:32:13;;;;;;;3.40;2.70;;;;;;;22.57;34.32;97265.34;8485476;28;20227;-69
2023/05/15 12:36:20;;;;;;;3.30;3.00;;;;;;;22.86;32.59;97242.97;8486009;28;20549;-72
2023/05/15 12:40:23;;;;;;;4.87;2.60;;;;;;;23.36;33.53;97268.44;8476617;28;20223;-72
2023/05/15 12:44:26;;;;;;;3.20;3.00;;;;;;;23.84;33.59;97263.28;8485183;28;20231;-71
2023/05/15 12:48:32;;;;;;;3.20;3.00;;;;;;;24.11;33.63;97270.81;8484867;27;20227;-70
2023/05/15 12:52:36;;;;;;;4.60;3.20;;;;;;;24.28;31.58;97276.88;8485026;27;20231;-69
2023/05/15 12:56:40;;;;;;;4.57;3.03;;;;;;;24.48;31.56;97272.00;8484869;27;20227;-69
2023/05/15 13:00:44;;;;;;;4.00;3.00;;;;;;;24.52;32.43;97249.53;8484717;27;20420;-70
2023/05/15 13:04:47;;;;;;;2.90;2.60;;;;;;;24.48;30.99;97260.59;8484414;27;20226;-70
2023/05/15 13:08:54;;;;;;;2.60;2.47;;;;;;;24.53;30.72;97247.69;8484307;28;20238;-70
2023/05/15 13:12:57;;;;;;;4.33;2.77;;;;;;;22.90;32.50;97233.75;8484387;27;20218;-69
2023/05/15 13:17:02;;;;;;;3.23;2.73;;;;;;;24.33;32.65;97271.91;8484216;27;20246;-69
2023/05/15 13:21:05;;;;;;;3.60;3.27;;;;;;;23.94;32.00;97272.69;8484152;28;20234;-70
2023/05/15 13:25:10;;;;;;;2.77;2.57;;;;;;;24.67;32.36;97268.13;8484227;28;20511;-69
2023/05/15 13:29:13;;;;;;;4.50;3.20;;;;;;;23.65;32.65;97267.94;8483397;27;20427;-70
2023/05/15 13:33:16;;;;;;;2.87;2.63;;;;;;;24.48;31.55;97258.75;8483362;28;20238;-70
2023/05/15 13:37:19;;;;;;;3.47;2.90;;;;;;;23.68;32.56;97259.66;8474969;27;20470;-70
2023/05/15 13:41:23;;;;;;;3.17;2.90;;;;;;;23.08;33.71;97260.03;8483566;27;20231;-70
2023/05/15 13:45:26;;;;;;;4.63;3.20;;;;;;;22.42;33.98;97263.31;8483307;27;20226;-70
2023/05/15 13:49:29;;;;;;;3.53;3.13;;;;;;;22.45;33.18;97256.91;8482972;27;20235;-70
2023/05/15 13:53:32;;;;;;;3.13;2.87;;;;;;;23.58;32.49;97261.66;8483036;27;20234;-70
2023/05/15 13:57:36;;;;;;;3.13;2.93;;;;;;;23.96;32.20;97262.75;8482767;27;20234;-69
2023/05/15 14:01:39;;;;;;;3.60;3.00;;;;;;;23.62;32.38;97261.16;8482767;28;20223;-70
2023/05/15 14:05:41;;;;;;;4.27;3.07;;;;;;;23.26;32.52;97252.75;8482261;27;20227;-70
2023/05/15 14:09:44;;;;;;;5.77;3.23;;;;;;;23.78;31.34;97251.56;8482144;28;20231;-70
2023/05/15 14:13:49;;;;;;;4.20;3.10;;;;;;;24.40;32.03;97250.88;8482153;28;20219;-70
2023/05/15 14:17:51;;;;;;;3.57;3.27;;;;;;;24.04;32.23;97235.47;8482081;28;20227;-70
2023/05/15 14:21:54;;;;;;;3.87;2.90;;;;;;;24.15;31.50;97252.78;8481926;28;20282;-70
2023/05/15 14:25:57;;;;;;;4.63;3.23;;;;;;;24.23;31.89;97252.75;8481909;27;20226;-69
2023/05/15 14:30:03;;;;;;;3.97;2.77;;;;;;;24.13;31.77;97255.59;8481744;27;20227;-70
2023/05/15 14:34:05;;;;;;;3.73;2.90;;;;;;;24.43;29.44;97245.25;8481424;28;20264;-70
2023/05/15 14:38:08;;;;;;;3.23;2.50;;;;;;;24.84;29.77;97262.72;8481455;28;20227;-70
2023/05/15 14:42:11;;;;;;;3.90;3.00;;;;;;;24.75;28.78;97240.75;8480788;27;20234;-70
2023/05/15 14:46:15;;;;;;;3.27;2.60;;;;;;;24.62;29.72;97251.94;8481430;28;20227;-70
2023/05/15 14:50:21;;;;;;;3.10;2.70;;;;;;;24.01;30.27;97256.97;8472293;28;20227;-71
2023/05/15 14:54:23;;;;;;;3.03;2.77;;;;;;;24.42;30.51;97261.28;8480987;27;20242;-68
2023/05/15 14:58:27;;;;;;;3.00;2.80;;;;;;;24.51;30.49;97262.91;8480996;27;20226;-68
2023/05/15 15:02:32;;;;;;;2.90;2.70;;;;;;;24.80;30.40;97262.25;8480847;28;20233;-68
2023/05/15 15:06:35;;;;;;;5.13;3.30;;;;;;;23.50;32.19;97262.50;8480219;28;20276;-69
2023/05/15 15:10:38;;;;;;;3.20;3.00;;;;;;;23.61;31.95;97262.16;8480857;27;20230;-69
2023/05/15 15:14:41;;;;;;;3.13;2.83;;;;;;;24.13;31.41;97265.38;8480761;28;20223;-69
2023/05/15 15:18:47;;;;;;;3.37;3.10;;;;;;;23.63;32.89;97262.00;8480531;28;20416;-69
2023/05/15 15:22:50;;;;;;;3.47;3.17;;;;;;;23.45;32.07;97266.63;8480434;28;20243;-69
2023/05/15 15:26:52;;;;;;;3.50;3.20;;;;;;;23.36;33.05;97276.38;8480578;27;20234;-70
2023/05/15 15:30:55;;;;;;;3.57;3.37;;;;;;;22.51;34.17;97268.66;8480203;28;20231;-69
2023/05/15 15:35:00;;;;;;;5.50;3.40;;;;;;;22.45;35.46;97276.19;8480200;27;20223;-69
2023/05/15 15:39:03;;;;;;;3.20;2.90;;;;;;;22.35;35.81;97264.13;8479530;28;20591;-69
2023/05/15 15:43:06;;;;;;;3.47;3.17;;;;;;;22.27;36.30;97267.56;8479964;28;20227;-69
2023/05/15 15:47:08;;;;;;;3.30;3.00;;;;;;;22.00;36.93;97276.47;8479831;27;20260;-69
2023/05/15 15:51:12;;;;;;;3.40;3.10;;;;;;;21.89;36.39;97263.56;8479560;28;20239;-69
2023/05/15 15:55:15;;;;;;;3.47;3.17;;;;;;;21.64;36.21;97280.03;8485573;27;20238;-69
2023/05/15 15:59:18;;;;;;;6.63;3.50;;;;;;;21.59;36.21;97281.47;8485813;27;20223;-71
2023/05/15 16:03:21;;;;;;;3.33;3.03;;;;;;;22.05;35.56;97259.19;8486194;28;20226;-70
2023/05/15 16:07:30;;;;;;;3.23;2.93;;;;;;;21.72;35.87;97276.63;8486105;27;20231;-70
2023/05/15 16:11:32;;;;;;;3.43;3.13;;;;;;;21.91;36.17;97286.13;8485882;28;20231;-70
2023/05/15 16:15:35;;;;;;;4.03;3.43;;;;;;;22.01;36.49;97286.84;8485900;28;20519;-70
2023/05/15 16:19:38;;;;;;;3.07;2.83;;;;;;;21.88;36.70;97288.28;8486008;28;20242;-70
2023/05/15 16:23:42;;;;;;;3.60;2.67;;;;;;;21.82;36.64;97287.09;8485439;27;20226;-70
2023/05/15 16:27:45;;;;;;;3.43;3.13;;;;;;;21.80;36.06;97281.13;8485626;27;20242;-69
2023/05/15 16:31:48;;;;;;;5.30;3.07;;;;;;;21.69;36.67;97279.59;8485486;28;20231;-69
2023/05/15 16:35:51;;;;;;;3.43;3.00;;;;;;;21.62;36.61;97291.72;8485029;27;20480;-70
2023/05/15 16:39:55;;;;;;;2.93;2.70;;;;;;;21.64;37.51;97302.94;8485081;27;20231;-70
2023/05/15 16:43:58;;;;;;;4.93;3.03;;;;;;;21.55;38.45;97303.84;8485032;27;20257;-69
2023/05/15 16:48:01;;;;;;;2.80;2.60;;;;;;;21.42;37.75;97302.41;8485154;27;20220;-69
2023/05/15 16:52:07;;;;;;;2.90;2.30;;;;;;;21.30;36.67;97300.97;8484742;27;20524;-69
2023/05/15 16:56:12;;;;;;;2.57;2.20;;;;;;;21.29;37.08;97313.31;8484996;28;20262;-70
2023/05/15 17:00:16;;;;;;;2.60;2.40;;;;;;;21.10;36.59;97324.00;8484393;28;20238;-69
2023/05/15 17:04:19;;;;;;;2.93;2.50;;;;;;;21.02;37.59;97330.03;8475239;27;20227;-69
2023/05/15 17:08:21;;;;;;;3.17;2.90;;;;;;;20.47;39.46;97322.97;8484230;27;20227;-70
2023/05/15 17:12:26;;;;;;;3.57;3.17;;;;;;;20.33;40.54;97348.91;8484585;27;20240;-70
2023/05/15 17:16:29;;;;;;;4.10;3.70;;;;;;;20.18;43.89;97359.06;8484152;27;20255;-70
2023/05/15 17:20:32;;;;;;;7.10;4.33;;;;;;;20.00;46.57;97366.88;8484084;28;20288;-70
2023/05/15 17:24:35;;;;;;;7.40;4.80;;;;;;;19.90;48.83;97370.34;8483886;27;20253;-69
2023/05/15 17:28:54;;;;;;;5.80;3.67;;;;;;;19.52;48.94;97335.25;8483979;28;20350;-69
2023/05/15 17:32:57;;;;;;;5.97;4.43;;;;;;;18.97;49.72;97391.84;8483741;27;20245;-69
2023/05/15 17:36:59;;;;;;;4.43;3.80;;;;;;;18.84;49.47;97413.91;8483524;27;20236;-69
2023/05/15 17:41:02;;;;;;;3.80;3.50;;;;;;;18.70;50.18;97425.56;8483352;27;20294;-68
2023/05/15 17:45:15;;;;;;;2.60;2.40;;;;;;;18.16;52.39;97424.03;8483156;28;20227;-68
2023/05/15 17:49:18;;;;;;;3.10;2.73;;;;;;;18.00;54.46;97437.59;8482745;27;20227;-69
2023/05/15 17:53:22;;;;;;;3.27;2.97;;;;;;;17.27;56.35;97420.81;8482657;27;20235;-68
2023/05/15 17:57:25;;;;;;;3.77;2.70;;;;;;;17.69;56.95;97431.41;8482601;28;20234;-67
2023/05/15 18:01:30;;;;;;;2.70;2.50;;;;;;;17.56;57.14;97426.34;8482858;27;20235;-68
2023/05/15 18:05:33;;;;;;;2.50;2.30;;;;;;;17.50;57.10;97422.44;8482464;27;20333;-69
2023/05/15 18:09:36;;;;;;;2.45;2.35;;;;;;;17.35;56.59;97455.09;8482107;28;20421;-68
2023/05/15 18:13:38;;;;;;;2.57;2.37;;;;;;;16.49;59.52;97504.41;8482484;27;20229;-68
2023/05/15 18:17:43;;;;;;;4.50;3.17;;;;;;;18.01;59.86;97491.66;8480043;27;20593;-68
2023/05/15 18:21:45;;;;;;;2.30;2.10;;;;;;;17.16;50.45;97451.31;8481936;27;20534;-68
2023/05/15 18:25:48;;;;;;;2.37;2.03;;;;;;;16.95;51.81;97445.16;8481758;27;20411;-69
2023/05/15 18:29:51;;;;;;;2.30;2.17;;;;;;;16.82;52.69;97432.22;8481829;28;20491;-68
2023/05/15 18:33:55;;;;;;;3.37;2.30;;;;;;;17.30;52.53;97437.09;8481819;27;20531;-69
2023/05/15 18:37:58;;;;;;;2.50;2.40;;;;;;;17.34;54.91;97435.94;8482220;27;20493;-68
2023/05/15 18:42:01;;;;;;;3.43;2.80;;;;;;;17.53;55.75;97445.72;8481146;27;20230;-68
2023/05/15 18:46:05;;;;;;;4.45;2.95;;;;;;;17.84;56.34;97455.50;8480492;27;20413;-68
2023/05/15 18:50:10;;;;;;;2.50;2.30;;;;;;;17.57;56.60;97454.16;8481186;28;20230;-68
2023/05/15 18:54:13;;;;;;;2.57;2.40;;;;;;;17.49;57.53;97453.97;8481082;28;20223;-68
2023/05/15 18:58:16;;;;;;;4.57;2.60;;;;;;;17.51;57.73;97459.91;8480709;28;20230;-68
2023/05/15 19:02:19;;;;;;;2.60;2.50;;;;;;;17.54;57.07;97451.81;8470795;28;20223;-68
2023/05/15 19:06:23;;;;;;;2.60;2.33;;;;;;;17.39;57.02;97459.94;8480806;28;20441;-68
2023/05/15 19:10:28;;;;;;;2.70;2.53;;;;;;;17.34;57.54;97446.41;8480825;28;20231;-68